sensor_id;sensor_type;location;lat;lon;timestamp;pressure;altitude;pressure_sealevel;temperature;humidity
30081;BME280;16902;50.816;12.828;2022-09-27T00:04:17;95984.16;;;11.17;100.00
30081;BME280;16902;50.816;12.828;2022-09-27T00:09:19;95973.84;;;10.98;100.00
30081;BME280;16902;50.816;12.828;2022-09-27T00:14:21;95962.66;;;11.10;100.00
30081;BME280;16902;50.816;12.828;2022-09-27T00:19:23;95967.31;;;11.07;100.00
30081;BME280;16902;50.816;12.828;2022-09-27T00:24:26;95963.09;;;11.06;100.00
30081;BME280;16902;50.816;12.828;2022-09-27T00:29:28;95947.16;;;11.03;100.00
30081;BME280;16902;50.816;12.828;2022-09-27T00:34:30;95950.53;;;11.03;100.00
30081;BME280;16902;50.816;12.828;2022-09-27T00:39:32;95939.56;;;11.13;100.00
30081;BME280;16902;50.816;12.828;2022-09-27T00:49:43;95915.22;;;11.07;100.00
30081;BME280;16902;50.816;12.828;2022-09-27T00:54:52;95915.88;;;11.15;100.00
30081;BME280;16902;50.816;12.828;2022-09-27T01:00:08;95904.47;;;11.04;100.00
30081;BME280;16902;50.816;12.828;2022-09-27T01:05:12;95896.06;;;11.02;100.00
30081;BME280;16902;50.816;12.828;2022-09-27T01:10:16;95888.38;;;10.95;100.00
30081;BME280;16902;50.816;12.828;2022-09-27T01:48:14;95834.19;;;10.80;100.00
30081;BME280;16902;50.816;12.828;2022-09-27T01:53:34;95826.69;;;10.96;100.00
30081;BME280;16902;50.816;12.828;2022-09-27T01:59:13;95810.50;;;10.82;100.00
30081;BME280;16902;50.816;12.828;2022-09-27T02:04:27;95806.78;;;10.78;100.00
30081;BME280;16902;50.816;12.828;2022-09-27T02:09:47;95797.19;;;10.78;100.00
30081;BME280;16902;50.816;12.828;2022-09-27T02:15:09;95799.97;;;11.00;100.00
30081;BME280;16902;50.816;12.828;2022-09-27T02:25:41;95790.22;;;10.96;100.00
30081;BME280;16902;50.816;12.828;2022-09-27T02:30:47;95783.00;;;10.98;100.00
30081;BME280;16902;50.816;12.828;2022-09-27T02:35:54;95782.31;;;11.02;100.00
30081;BME280;16902;50.816;12.828;2022-09-27T02:40:56;95777.81;;;10.86;100.00
30081;BME280;16902;50.816;12.828;2022-09-27T02:57:19;95764.03;;;10.74;100.00
30081;BME280;16902;50.816;12.828;2022-09-27T03:02:37;95765.13;;;10.78;100.00
30081;BME280;16902;50.816;12.828;2022-09-27T03:08:17;95763.78;;;10.75;100.00
30081;BME280;16902;50.816;12.828;2022-09-27T03:13:19;95764.50;;;10.59;100.00
30081;BME280;16902;50.816;12.828;2022-09-27T03:18:21;95759.22;;;10.31;100.00
30081;BME280;16902;50.816;12.828;2022-09-27T03:23:42;95757.69;;;9.99;100.00
30081;BME280;16902;50.816;12.828;2022-09-27T03:28:44;95758.13;;;9.85;100.00
30081;BME280;16902;50.816;12.828;2022-09-27T03:33:46;95750.81;;;9.82;100.00
30081;BME280;16902;50.816;12.828;2022-09-27T03:38:48;95750.00;;;9.93;100.00
30081;BME280;16902;50.816;12.828;2022-09-27T03:43:53;95753.25;;;9.76;100.00
30081;BME280;16902;50.816;12.828;2022-09-27T03:48:59;95749.31;;;9.74;100.00
30081;BME280;16902;50.816;12.828;2022-09-27T03:54:03;95739.22;;;9.66;100.00
30081;BME280;16902;50.816;12.828;2022-09-27T03:59:05;95735.94;;;9.59;100.00
30081;BME280;16902;50.816;12.828;2022-09-27T04:04:27;95731.84;;;9.39;100.00
30081;BME280;16902;50.816;12.828;2022-09-27T04:09:29;95730.81;;;9.29;100.00
30081;BME280;16902;50.816;12.828;2022-09-27T04:14:35;95722.41;;;9.15;100.00
30081;BME280;16902;50.816;12.828;2022-09-27T04:19:56;95716.34;;;9.02;100.00
30081;BME280;16902;50.816;12.828;2022-09-27T04:25:01;95711.69;;;8.93;100.00
30081;BME280;16902;50.816;12.828;2022-09-27T04:30:10;95717.66;;;8.93;100.00
30081;BME280;16902;50.816;12.828;2022-09-27T04:35:42;95723.44;;;8.95;100.00
30081;BME280;16902;50.816;12.828;2022-09-27T04:41:03;95710.25;;;8.97;100.00
30081;BME280;16902;50.816;12.828;2022-09-27T04:46:07;95716.00;;;8.99;100.00
30081;BME280;16902;50.816;12.828;2022-09-27T04:51:09;95711.63;;;8.99;100.00
30081;BME280;16902;50.816;12.828;2022-09-27T04:56:12;95706.84;;;8.96;100.00
30081;BME280;16902;50.816;12.828;2022-09-27T05:01:14;95708.22;;;8.99;100.00
30081;BME280;16902;50.816;12.828;2022-09-27T05:06:19;95715.78;;;9.00;100.00
30081;BME280;16902;50.816;12.828;2022-09-27T05:11:21;95722.81;;;9.12;100.00
30081;BME280;16902;50.816;12.828;2022-09-27T05:16:41;95725.13;;;9.20;100.00
30081;BME280;16902;50.816;12.828;2022-09-27T05:22:02;95718.69;;;9.22;100.00
30081;BME280;16902;50.816;12.828;2022-09-27T05:27:04;95714.16;;;9.18;100.00
30081;BME280;16902;50.816;12.828;2022-09-27T05:32:12;95710.63;;;9.12;100.00
30081;BME280;16902;50.816;12.828;2022-09-27T05:37:14;95704.88;;;9.10;100.00
30081;BME280;16902;50.816;12.828;2022-09-27T05:42:16;95700.19;;;9.19;100.00
30081;BME280;16902;50.816;12.828;2022-09-27T05:47:19;95704.66;;;9.12;100.00
30081;BME280;16902;50.816;12.828;2022-09-27T05:52:21;95700.72;;;9.21;100.00
30081;BME280;16902;50.816;12.828;2022-09-27T05:57:24;95699.63;;;9.29;100.00
30081;BME280;16902;50.816;12.828;2022-09-27T06:02:31;95704.72;;;9.35;100.00
30081;BME280;16902;50.816;12.828;2022-09-27T06:07:58;95709.38;;;9.45;100.00
30081;BME280;16902;50.816;12.828;2022-09-27T06:13:14;95695.97;;;9.48;100.00
30081;BME280;16902;50.816;12.828;2022-09-27T06:18:16;95687.81;;;9.44;100.00
30081;BME280;16902;50.816;12.828;2022-09-27T06:23:22;95690.28;;;9.51;100.00
30081;BME280;16902;50.816;12.828;2022-09-27T06:28:24;95691.44;;;9.55;100.00
30081;BME280;16902;50.816;12.828;2022-09-27T06:33:29;95706.25;;;9.66;100.00
30081;BME280;16902;50.816;12.828;2022-09-27T06:38:35;95700.72;;;9.74;100.00
30081;BME280;16902;50.816;12.828;2022-09-27T06:44:00;95703.19;;;9.81;100.00
30081;BME280;16902;50.816;12.828;2022-09-27T06:49:21;95697.00;;;9.82;100.00
30081;BME280;16902;50.816;12.828;2022-09-27T06:54:30;95699.63;;;9.82;100.00
30081;BME280;16902;50.816;12.828;2022-09-27T06:59:33;95713.50;;;9.88;100.00
30081;BME280;16902;50.816;12.828;2022-09-27T07:05:12;95711.03;;;9.93;100.00
30081;BME280;16902;50.816;12.828;2022-09-27T07:10:38;95722.75;;;9.95;100.00
30081;BME280;16902;50.816;12.828;2022-09-27T07:15:41;95723.22;;;10.04;100.00
30081;BME280;16902;50.816;12.828;2022-09-27T07:20:46;95730.00;;;10.17;100.00
30081;BME280;16902;50.816;12.828;2022-09-27T07:25:49;95736.69;;;10.24;100.00
30081;BME280;16902;50.816;12.828;2022-09-27T07:30:53;95736.03;;;10.41;100.00
30081;BME280;16902;50.816;12.828;2022-09-27T07:35:56;95746.94;;;10.66;100.00
30081;BME280;16902;50.816;12.828;2022-09-27T07:41:05;95747.72;;;10.78;100.00
30081;BME280;16902;50.816;12.828;2022-09-27T07:46:06;95757.13;;;10.68;100.00
30081;BME280;16902;50.816;12.828;2022-09-27T07:51:27;95755.19;;;10.75;100.00
30081;BME280;16902;50.816;12.828;2022-09-27T07:56:39;95759.63;;;10.74;100.00
30081;BME280;16902;50.816;12.828;2022-09-27T08:01:43;95757.38;;;10.43;100.00
30081;BME280;16902;50.816;12.828;2022-09-27T08:06:47;95764.84;;;10.51;100.00
30081;BME280;16902;50.816;12.828;2022-09-27T08:11:48;95766.19;;;10.65;100.00
30081;BME280;16902;50.816;12.828;2022-09-27T08:16:50;95771.16;;;10.78;100.00
30081;BME280;16902;50.816;12.828;2022-09-27T08:22:08;95773.41;;;10.75;100.00
30081;BME280;16902;50.816;12.828;2022-09-27T08:27:27;95769.09;;;10.80;100.00
30081;BME280;16902;50.816;12.828;2022-09-27T08:32:34;95776.47;;;10.72;100.00
30081;BME280;16902;50.816;12.828;2022-09-27T08:37:39;95781.88;;;10.82;100.00
30081;BME280;16902;50.816;12.828;2022-09-27T08:42:49;95779.41;;;10.75;100.00
30081;BME280;16902;50.816;12.828;2022-09-27T08:48:01;95789.59;;;10.77;100.00
30081;BME280;16902;50.816;12.828;2022-09-27T08:53:24;95796.41;;;10.54;100.00
30081;BME280;16902;50.816;12.828;2022-09-27T08:58:32;95792.22;;;10.65;100.00
30081;BME280;16902;50.816;12.828;2022-09-27T09:03:49;95803.84;;;10.63;100.00
30081;BME280;16902;50.816;12.828;2022-09-27T09:09:04;95806.94;;;10.60;100.00
30081;BME280;16902;50.816;12.828;2022-09-27T09:14:27;95811.44;;;10.52;100.00
30081;BME280;16902;50.816;12.828;2022-09-27T09:20:02;95818.13;;;10.48;100.00
30081;BME280;16902;50.816;12.828;2022-09-27T09:25:28;95822.53;;;10.48;100.00
30081;BME280;16902;50.816;12.828;2022-09-27T09:36:10;95841.97;;;9.50;100.00
30081;BME280;16902;50.816;12.828;2022-09-27T09:41:18;95853.50;;;9.24;100.00
30081;BME280;16902;50.816;12.828;2022-09-27T09:46:44;95856.09;;;9.06;100.00
30081;BME280;16902;50.816;12.828;2022-09-27T09:51:53;95856.22;;;9.11;100.00
30081;BME280;16902;50.816;12.828;2022-09-27T09:57:05;95858.88;;;9.22;100.00
30081;BME280;16902;50.816;12.828;2022-09-27T10:02:32;95867.53;;;9.16;100.00
30081;BME280;16902;50.816;12.828;2022-09-27T10:07:44;95865.97;;;9.34;100.00
30081;BME280;16902;50.816;12.828;2022-09-27T10:12:46;95870.13;;;9.53;100.00
30081;BME280;16902;50.816;12.828;2022-09-27T10:17:52;95876.38;;;9.64;100.00
30081;BME280;16902;50.816;12.828;2022-09-27T10:23:03;95890.97;;;9.46;100.00
30081;BME280;16902;50.816;12.828;2022-09-27T10:33:36;95879.66;;;10.90;100.00
30081;BME280;16902;50.816;12.828;2022-09-27T10:38:51;95882.63;;;11.45;100.00
30081;BME280;16902;50.816;12.828;2022-09-27T10:44:25;95881.41;;;11.36;100.00
30081;BME280;16902;50.816;12.828;2022-09-27T10:49:40;95880.69;;;10.89;100.00
30081;BME280;16902;50.816;12.828;2022-09-27T10:55:18;95890.72;;;10.26;100.00
30081;BME280;16902;50.816;12.828;2022-09-27T11:00:28;95899.13;;;10.10;100.00
30081;BME280;16902;50.816;12.828;2022-09-27T11:05:35;95902.34;;;9.94;100.00
30081;BME280;16902;50.816;12.828;2022-09-27T11:10:38;95913.66;;;9.69;100.00
30081;BME280;16902;50.816;12.828;2022-09-27T11:26:25;95915.81;;;9.24;100.00
30081;BME280;16902;50.816;12.828;2022-09-27T11:32:10;95933.06;;;9.85;100.00
30081;BME280;16902;50.816;12.828;2022-09-27T11:43:21;95945.63;;;9.88;100.00
30081;BME280;16902;50.816;12.828;2022-09-27T12:04:47;95945.34;;;9.78;100.00
30081;BME280;16902;50.816;12.828;2022-09-27T12:09:57;95942.66;;;9.85;100.00
30081;BME280;16902;50.816;12.828;2022-09-27T12:15:10;95948.38;;;10.05;100.00
30081;BME280;16902;50.816;12.828;2022-09-27T12:20:34;95945.38;;;10.20;100.00
30081;BME280;16902;50.816;12.828;2022-09-27T12:25:40;95943.53;;;10.27;100.00
30081;BME280;16902;50.816;12.828;2022-09-27T12:30:54;95936.94;;;11.13;100.00
30081;BME280;16902;50.816;12.828;2022-09-27T12:36:22;95925.47;;;11.78;100.00
30081;BME280;16902;50.816;12.828;2022-09-27T12:41:27;95929.50;;;11.57;100.00
30081;BME280;16902;50.816;12.828;2022-09-27T12:47:07;95934.75;;;10.63;100.00
30081;BME280;16902;50.816;12.828;2022-09-27T12:52:15;95938.09;;;9.98;100.00
30081;BME280;16902;50.816;12.828;2022-09-27T13:08:54;95951.22;;;9.55;100.00
30081;BME280;16902;50.816;12.828;2022-09-27T13:14:00;95955.47;;;9.68;100.00
30081;BME280;16902;50.816;12.828;2022-09-27T13:19:03;95953.69;;;11.29;100.00
30081;BME280;16902;50.816;12.828;2022-09-27T13:24:30;95951.25;;;13.32;100.00
30081;BME280;16902;50.816;12.828;2022-09-27T13:29:32;95959.94;;;11.92;100.00
30081;BME280;16902;50.816;12.828;2022-09-27T13:34:44;95958.53;;;10.55;100.00
30081;BME280;16902;50.816;12.828;2022-09-27T13:45:55;95955.59;;;9.91;100.00
30081;BME280;16902;50.816;12.828;2022-09-27T14:01:49;95963.25;;;9.49;100.00
30081;BME280;16902;50.816;12.828;2022-09-27T14:06:56;95957.41;;;9.36;100.00
30081;BME280;16902;50.816;12.828;2022-09-27T14:12:28;95967.16;;;10.25;100.00
30081;BME280;16902;50.816;12.828;2022-09-27T14:17:27;95964.91;;;11.06;100.00
30081;BME280;16902;50.816;12.828;2022-09-27T14:22:32;95970.75;;;10.66;100.00
30081;BME280;16902;50.816;12.828;2022-09-27T14:27:37;95981.94;;;10.25;100.00
30081;BME280;16902;50.816;12.828;2022-09-27T14:32:54;95993.19;;;9.89;100.00
30081;BME280;16902;50.816;12.828;2022-09-27T14:38:19;95990.03;;;9.68;100.00
30081;BME280;16902;50.816;12.828;2022-09-27T14:43:45;95986.50;;;9.44;100.00
30081;BME280;16902;50.816;12.828;2022-09-27T14:48:50;95987.50;;;9.25;100.00
30081;BME280;16902;50.816;12.828;2022-09-27T14:53:54;95994.91;;;9.21;100.00
30081;BME280;16902;50.816;12.828;2022-09-27T14:59:03;95985.13;;;9.23;100.00
30081;BME280;16902;50.816;12.828;2022-09-27T15:04:12;95980.63;;;9.31;100.00
30081;BME280;16902;50.816;12.828;2022-09-27T15:09:16;95992.84;;;9.30;100.00
30081;BME280;16902;50.816;12.828;2022-09-27T15:14:19;96001.00;;;9.34;100.00
30081;BME280;16902;50.816;12.828;2022-09-27T15:19:27;96010.03;;;9.49;100.00
30081;BME280;16902;50.816;12.828;2022-09-27T15:24:45;96017.47;;;9.83;100.00
30081;BME280;16902;50.816;12.828;2022-09-27T15:29:52;96023.50;;;10.13;100.00
30081;BME280;16902;50.816;12.828;2022-09-27T15:34:55;96017.38;;;10.26;100.00
30081;BME280;16902;50.816;12.828;2022-09-27T15:45:35;96019.69;;;9.97;100.00
30081;BME280;16902;50.816;12.828;2022-09-27T15:50:38;96026.34;;;9.93;100.00
30081;BME280;16902;50.816;12.828;2022-09-27T15:55:42;96029.88;;;9.81;100.00
30081;BME280;16902;50.816;12.828;2022-09-27T16:01:02;96037.22;;;9.65;100.00
30081;BME280;16902;50.816;12.828;2022-09-27T16:06:06;96046.97;;;9.51;100.00
30081;BME280;16902;50.816;12.828;2022-09-27T16:11:11;96057.34;;;9.33;100.00
30081;BME280;16902;50.816;12.828;2022-09-27T16:16:15;96054.16;;;8.81;100.00
30081;BME280;16902;50.816;12.828;2022-09-27T16:21:18;96050.56;;;8.44;100.00
30081;BME280;16902;50.816;12.828;2022-09-27T16:26:19;96042.06;;;8.23;100.00
30081;BME280;16902;50.816;12.828;2022-09-27T16:31:21;96039.31;;;8.18;100.00
30081;BME280;16902;50.816;12.828;2022-09-27T16:36:23;96047.97;;;7.99;100.00
30081;BME280;16902;50.816;12.828;2022-09-27T16:41:24;96047.97;;;7.92;100.00
30081;BME280;16902;50.816;12.828;2022-09-27T16:46:26;96061.34;;;7.83;100.00
30081;BME280;16902;50.816;12.828;2022-09-27T16:51:27;96120.19;;;7.29;100.00
30081;BME280;16902;50.816;12.828;2022-09-27T16:56:48;96108.16;;;6.49;100.00
30081;BME280;16902;50.816;12.828;2022-09-27T17:01:55;96098.56;;;6.36;100.00
30081;BME280;16902;50.816;12.828;2022-09-27T17:06:58;96102.72;;;6.37;100.00
30081;BME280;16902;50.816;12.828;2022-09-27T17:12:00;96112.28;;;6.43;100.00
30081;BME280;16902;50.816;12.828;2022-09-27T17:17:01;96112.69;;;6.47;100.00
30081;BME280;16902;50.816;12.828;2022-09-27T17:22:05;96115.91;;;6.49;100.00
30081;BME280;16902;50.816;12.828;2022-09-27T17:27:07;96104.34;;;6.51;100.00
30081;BME280;16902;50.816;12.828;2022-09-27T17:32:11;96103.56;;;6.57;100.00
30081;BME280;16902;50.816;12.828;2022-09-27T17:37:13;96099.81;;;6.60;100.00
30081;BME280;16902;50.816;12.828;2022-09-27T17:42:15;96092.25;;;6.65;100.00
30081;BME280;16902;50.816;12.828;2022-09-27T17:47:19;96088.31;;;6.69;100.00
30081;BME280;16902;50.816;12.828;2022-09-27T17:52:39;96080.91;;;6.66;100.00
30081;BME280;16902;50.816;12.828;2022-09-27T17:57:41;96082.72;;;6.65;100.00
30081;BME280;16902;50.816;12.828;2022-09-27T18:02:43;96088.06;;;6.57;100.00
30081;BME280;16902;50.816;12.828;2022-09-27T18:07:45;96090.09;;;6.68;100.00
30081;BME280;16902;50.816;12.828;2022-09-27T18:12:47;96098.22;;;6.59;100.00
30081;BME280;16902;50.816;12.828;2022-09-27T18:17:49;96086.31;;;6.64;100.00
30081;BME280;16902;50.816;12.828;2022-09-27T18:22:58;96083.34;;;6.74;100.00
30081;BME280;16902;50.816;12.828;2022-09-27T18:28:00;96094.25;;;6.69;100.00
30081;BME280;16902;50.816;12.828;2022-09-27T18:33:02;96094.59;;;6.40;100.00
30081;BME280;16902;50.816;12.828;2022-09-27T18:38:04;96085.78;;;6.21;100.00
30081;BME280;16902;50.816;12.828;2022-09-27T18:43:05;96091.31;;;6.18;100.00
30081;BME280;16902;50.816;12.828;2022-09-27T18:48:07;96089.72;;;6.17;100.00
30081;BME280;16902;50.816;12.828;2022-09-27T18:53:09;96091.53;;;6.23;100.00
30081;BME280;16902;50.816;12.828;2022-09-27T18:58:11;96091.16;;;6.26;100.00
30081;BME280;16902;50.816;12.828;2022-09-27T19:03:16;96091.38;;;6.25;100.00
30081;BME280;16902;50.816;12.828;2022-09-27T19:08:18;96089.16;;;6.22;100.00
30081;BME280;16902;50.816;12.828;2022-09-27T19:13:20;96091.16;;;6.20;100.00
30081;BME280;16902;50.816;12.828;2022-09-27T19:18:28;96093.88;;;6.05;100.00
30081;BME280;16902;50.816;12.828;2022-09-27T19:23:30;96097.81;;;6.01;100.00
30081;BME280;16902;50.816;12.828;2022-09-27T19:28:37;96095.34;;;6.27;100.00
30081;BME280;16902;50.816;12.828;2022-09-27T19:33:40;96096.19;;;6.41;100.00
30081;BME280;16902;50.816;12.828;2022-09-27T19:38:42;96106.00;;;6.65;100.00
30081;BME280;16902;50.816;12.828;2022-09-27T19:43:49;96096.47;;;6.73;100.00
30081;BME280;16902;50.816;12.828;2022-09-27T19:48:53;96092.72;;;6.82;100.00
30081;BME280;16902;50.816;12.828;2022-09-27T19:53:56;96091.13;;;6.94;100.00
30081;BME280;16902;50.816;12.828;2022-09-27T19:58:58;96089.53;;;6.93;100.00
30081;BME280;16902;50.816;12.828;2022-09-27T20:04:06;96090.31;;;6.93;100.00
30081;BME280;16902;50.816;12.828;2022-09-27T20:09:08;96094.72;;;6.93;100.00
30081;BME280;16902;50.816;12.828;2022-09-27T20:14:10;96086.72;;;6.94;100.00
30081;BME280;16902;50.816;12.828;2022-09-27T20:19:12;96093.91;;;6.92;100.00
30081;BME280;16902;50.816;12.828;2022-09-27T20:24:14;96091.31;;;6.92;100.00
30081;BME280;16902;50.816;12.828;2022-09-27T20:29:16;96084.56;;;6.91;100.00
30081;BME280;16902;50.816;12.828;2022-09-27T20:34:18;96083.56;;;6.92;100.00
30081;BME280;16902;50.816;12.828;2022-09-27T20:39:20;96082.75;;;6.85;100.00
30081;BME280;16902;50.816;12.828;2022-09-27T20:44:23;96082.94;;;6.84;100.00
30081;BME280;16902;50.816;12.828;2022-09-27T20:49:25;96082.56;;;6.87;100.00
30081;BME280;16902;50.816;12.828;2022-09-27T20:54:27;96084.75;;;6.83;100.00
30081;BME280;16902;50.816;12.828;2022-09-27T20:59:29;96084.75;;;6.83;100.00
30081;BME280;16902;50.816;12.828;2022-09-27T21:04:31;96083.53;;;6.73;100.00
30081;BME280;16902;50.816;12.828;2022-09-27T21:09:32;96082.50;;;6.60;100.00
30081;BME280;16902;50.816;12.828;2022-09-27T21:14:36;96081.72;;;6.60;100.00
30081;BME280;16902;50.816;12.828;2022-09-27T21:19:38;96086.31;;;6.64;100.00
30081;BME280;16902;50.816;12.828;2022-09-27T21:24:42;96077.19;;;6.82;100.00
30081;BME280;16902;50.816;12.828;2022-09-27T21:29:43;96083.56;;;6.92;100.00
30081;BME280;16902;50.816;12.828;2022-09-27T21:34:45;96082.38;;;7.02;100.00
30081;BME280;16902;50.816;12.828;2022-09-27T21:39:47;96085.75;;;7.02;100.00
30081;BME280;16902;50.816;12.828;2022-09-27T21:44:49;96092.31;;;7.05;100.00
30081;BME280;16902;50.816;12.828;2022-09-27T21:49:51;96094.72;;;7.06;100.00
30081;BME280;16902;50.816;12.828;2022-09-27T21:54:53;96099.69;;;7.08;100.00
30081;BME280;16902;50.816;12.828;2022-09-27T21:59:54;96090.34;;;7.13;100.00
30081;BME280;16902;50.816;12.828;2022-09-27T22:04:57;96087.53;;;7.08;100.00
30081;BME280;16902;50.816;12.828;2022-09-27T22:10:00;96094.72;;;7.13;100.00
30081;BME280;16902;50.816;12.828;2022-09-27T22:15:02;96093.31;;;7.17;100.00
30081;BME280;16902;50.816;12.828;2022-09-27T22:20:04;96090.53;;;7.18;100.00
30081;BME280;16902;50.816;12.828;2022-09-27T22:25:06;96091.94;;;7.21;100.00
30081;BME280;16902;50.816;12.828;2022-09-27T22:30:08;96072.44;;;7.12;100.00
30081;BME280;16902;50.816;12.828;2022-09-27T22:35:10;96076.00;;;7.11;100.00
30081;BME280;16902;50.816;12.828;2022-09-27T22:40:12;96077.78;;;7.04;100.00
30081;BME280;16902;50.816;12.828;2022-09-27T22:45:14;96074.00;;;6.93;100.00
30081;BME280;16902;50.816;12.828;2022-09-27T22:50:16;96068.81;;;6.86;100.00
30081;BME280;16902;50.816;12.828;2022-09-27T22:55:17;96066.03;;;6.94;100.00
30081;BME280;16902;50.816;12.828;2022-09-27T23:00:19;96063.25;;;6.96;100.00
30081;BME280;16902;50.816;12.828;2022-09-27T23:05:21;96046.16;;;6.88;100.00
30081;BME280;16902;50.816;12.828;2022-09-27T23:10:23;96044.34;;;6.82;100.00
30081;BME280;16902;50.816;12.828;2022-09-27T23:15:25;96045.53;;;6.80;100.00
30081;BME280;16902;50.816;12.828;2022-09-27T23:20:27;96047.13;;;6.74;100.00
30081;BME280;16902;50.816;12.828;2022-09-27T23:25:30;96036.16;;;6.65;100.00
30081;BME280;16902;50.816;12.828;2022-09-27T23:30:31;96048.31;;;6.65;100.00
30081;BME280;16902;50.816;12.828;2022-09-27T23:35:33;96053.66;;;6.57;100.00
30081;BME280;16902;50.816;12.828;2022-09-27T23:40:34;96057.22;;;6.49;100.00
30081;BME280;16902;50.816;12.828;2022-09-27T23:45:37;96048.69;;;6.49;100.00
30081;BME280;16902;50.816;12.828;2022-09-27T23:50:41;96042.72;;;6.48;100.00
30081;BME280;16902;50.816;12.828;2022-09-27T23:55:44;96047.09;;;6.54;100.00
